Time;durP1;ratioP1;P1;durP2;ratioP2;P2;SDS_P1;SDS_P2;PMS_P1;PMS_P2;Temp;Humidity;BMP_temperature;BMP_pressure;BME280_temperature;BME280_humidity;BME280_pressure;Samples;Min_cycle;Max_cycle;Signal;HPM_P1;HPM_P2
2021/09/08 00:00:50;;;;;;;15.83;14.17;;;;;;;;;;5015058;28;20429;-72
2021/09/08 00:03:16;;;;;;;15.67;13.90;;;;;;;;;;5029288;28;20891;-74
2021/09/08 00:05:42;;;;;;;15.13;13.53;;;;;;;;;;5026159;28;20432;-73
2021/09/08 00:08:08;;;;;;;16.10;14.03;;;;;;;;;;5022221;28;20439;-73
2021/09/08 00:10:34;;;;;;;15.40;12.83;;;;;;;;;;5036158;28;20459;-73
2021/09/08 00:13:00;;;;;;;16.13;14.50;;;;;;;;;;5019510;28;20417;-73
2021/09/08 00:15:26;;;;;;;16.63;13.43;;;;;;;;;;5028546;28;20424;-74
2021/09/08 00:17:52;;;;;;;15.60;13.83;;;;;;;;;;5021987;28;20751;-75
2021/09/08 00:20:18;;;;;;;16.57;14.20;;;;;;;;;;5026039;28;20433;-73
2021/09/08 00:22:44;;;;;;;14.93;13.40;;;;;;;;;;5015781;28;20786;-74
2021/09/08 00:25:12;;;;;;;15.97;14.27;;;;;;;;;;5015765;28;20756;-75
2021/09/08 00:27:38;;;;;;;17.30;14.63;;;;;;;;;;5015343;28;20817;-74
2021/09/08 00:30:05;;;;;;;16.33;14.63;;;;;;;;;;5018997;28;20564;-73
2021/09/08 00:32:31;;;;;;;16.30;13.70;;;;;;;;;;5028673;28;20421;-74
2021/09/08 00:34:57;;;;;;;17.83;14.63;;;;;;;;;;5024488;28;20418;-74
2021/09/08 00:37:23;;;;;;;16.37;14.37;;;;;;;;;;5031747;28;20907;-75
2021/09/08 00:39:49;;;;;;;16.17;14.27;;;;;;;;;;5025791;28;20425;-74
2021/09/08 00:42:17;;;;;;;17.13;14.50;;;;;;;;;;5020783;28;20405;-76
2021/09/08 00:44:44;;;;;;;16.07;14.47;;;;;;;;;;5034468;28;20424;-73
2021/09/08 00:47:14;;;;;;;16.50;14.50;;;;;;;;;;5021417;28;20418;-73
2021/09/08 00:49:40;;;;;;;17.77;15.97;;;;;;;;;;5024523;28;20465;-75
2021/09/08 00:52:07;;;;;;;17.47;15.67;;;;;;;;;;5028829;28;20410;-75
2021/09/08 00:54:34;;;;;;;19.23;16.20;;;;;;;;;;5015534;28;20516;-73
2021/09/08 00:57:02;;;;;;;17.07;15.00;;;;;;;;;;5014929;28;20409;-73
2021/09/08 00:59:28;;;;;;;21.20;15.60;;;;;;;;;;5026854;28;20436;-75
2021/09/08 01:01:54;;;;;;;17.33;14.53;;;;;;;;;;5016753;28;20771;-73
2021/09/08 01:04:20;;;;;;;16.70;14.97;;;;;;;;;;5015102;28;20420;-75
2021/09/08 01:06:46;;;;;;;16.87;14.83;;;;;;;;;;5027953;28;20430;-76
2021/09/08 01:09:12;;;;;;;18.07;15.20;;;;;;;;;;5025597;28;20451;-72
2021/09/08 01:11:38;;;;;;;18.90;15.10;;;;;;;;;;5016166;28;20452;-74
2021/09/08 01:14:04;;;;;;;18.53;15.87;;;;;;;;;;5015847;28;20417;-73
2021/09/08 01:16:30;;;;;;;18.63;15.10;;;;;;;;;;5034599;28;20466;-75
2021/09/08 01:18:56;;;;;;;18.23;15.90;;;;;;;;;;5034483;28;20827;-72
2021/09/08 01:21:23;;;;;;;17.10;14.67;;;;;;;;;;5034465;28;20420;-73
2021/09/08 01:23:49;;;;;;;15.77;13.93;;;;;;;;;;5022570;28;20432;-75
2021/09/08 01:26:15;;;;;;;16.47;14.20;;;;;;;;;;5027900;28;20429;-72
2021/09/08 01:28:41;;;;;;;18.50;15.53;;;;;;;;;;5014781;28;20855;-74
2021/09/08 01:31:07;;;;;;;16.90;15.20;;;;;;;;;;5015766;28;20806;-74
2021/09/08 01:33:34;;;;;;;18.13;14.37;;;;;;;;;;5014873;28;20448;-75
2021/09/08 01:36:00;;;;;;;17.07;15.30;;;;;;;;;;5027796;28;20417;-74
2021/09/08 01:38:26;;;;;;;16.30;14.70;;;;;;;;;;5026850;28;20455;-73
2021/09/08 01:40:52;;;;;;;17.20;14.33;;;;;;;;;;5033476;28;20924;-73
2021/09/08 01:43:22;;;;;;;17.73;14.73;;;;;;;;;;5022151;28;20918;-73
2021/09/08 01:45:48;;;;;;;18.20;13.90;;;;;;;;;;5027590;28;20547;-75
2021/09/08 01:48:14;;;;;;;15.53;13.50;;;;;;;;;;5014013;28;20464;-75
2021/09/08 01:50:40;;;;;;;16.77;13.60;;;;;;;;;;5014339;28;20994;-73
2021/09/08 01:53:06;;;;;;;16.80;13.57;;;;;;;;;;5013750;28;20417;-75
2021/09/08 01:55:32;;;;;;;15.67;13.97;;;;;;;;;;5031652;28;20739;-75
2021/09/08 01:57:58;;;;;;;15.80;14.27;;;;;;;;;;5021335;28;20415;-75
2021/09/08 02:00:26;;;;;;;16.00;13.40;;;;;;;;;;5014106;28;20416;-74
2021/09/08 02:02:52;;;;;;;16.73;14.07;;;;;;;;;;5014271;28;20771;-74
2021/09/08 02:05:18;;;;;;;15.37;13.50;;;;;;;;;;5014090;28;20429;-74
2021/09/08 02:07:44;;;;;;;16.23;13.90;;;;;;;;;;5013639;28;20436;-74
2021/09/08 02:10:10;;;;;;;15.50;13.90;;;;;;;;;;5013777;28;20463;-74
2021/09/08 02:12:37;;;;;;;18.43;13.90;;;;;;;;;;5026132;28;20989;-75
2021/09/08 02:15:03;;;;;;;16.33;14.63;;;;;;;;;;5015224;28;20500;-75
2021/09/08 02:17:29;;;;;;;16.23;14.13;;;;;;;;;;5013630;28;20416;-74
2021/09/08 02:19:56;;;;;;;16.93;13.90;;;;;;;;;;5021167;28;20442;-76
2021/09/08 02:22:22;;;;;;;14.97;12.90;;;;;;;;;;5036083;28;20438;-74
2021/09/08 02:24:48;;;;;;;16.63;13.93;;;;;;;;;;5013688;28;20420;-75
2021/09/08 02:27:14;;;;;;;17.23;13.47;;;;;;;;;;5013986;28;20424;-74
2021/09/08 02:29:40;;;;;;;13.97;12.47;;;;;;;;;;5025971;28;20787;-74
2021/09/08 02:32:06;;;;;;;16.03;14.00;;;;;;;;;;5013621;28;20416;-73
2021/09/08 02:34:32;;;;;;;17.53;13.50;;;;;;;;;;5020973;28;20416;-73
2021/09/08 02:36:58;;;;;;;14.53;13.03;;;;;;;;;;5019549;28;20485;-75
2021/09/08 02:39:24;;;;;;;15.20;13.70;;;;;;;;;;5025686;28;20468;-74
2021/09/08 02:41:50;;;;;;;15.13;13.53;;;;;;;;;;5038768;28;20412;-73
2021/09/08 02:44:16;;;;;;;14.53;13.10;;;;;;;;;;5033268;28;20419;-75
2021/09/08 02:46:43;;;;;;;19.10;13.20;;;;;;;;;;5018738;28;20470;-73
2021/09/08 02:49:09;;;;;;;14.03;12.63;;;;;;;;;;5013496;28;20480;-73
2021/09/08 02:51:35;;;;;;;14.77;12.63;;;;;;;;;;5013078;28;20811;-73
2021/09/08 02:54:01;;;;;;;16.97;14.33;;;;;;;;;;5020656;28;20415;-75
2021/09/08 02:56:27;;;;;;;14.13;12.63;;;;;;;;;;5030577;28;20410;-74
2021/09/08 02:58:53;;;;;;;13.33;11.93;;;;;;;;;;5012869;28;20945;-73
2021/09/08 03:01:19;;;;;;;14.30;12.83;;;;;;;;;;5013548;28;20421;-73
2021/09/08 03:03:45;;;;;;;15.00;12.93;;;;;;;;;;5025834;28;20448;-74
2021/09/08 03:06:11;;;;;;;13.67;12.13;;;;;;;;;;5015215;28;20966;-74
2021/09/08 03:08:37;;;;;;;13.47;12.10;;;;;;;;;;5017042;28;20462;-74
2021/09/08 03:11:04;;;;;;;13.80;12.37;;;;;;;;;;5017280;28;20494;-75
2021/09/08 03:13:30;;;;;;;14.80;13.27;;;;;;;;;;5017155;28;20495;-73
2021/09/08 03:15:56;;;;;;;13.70;12.40;;;;;;;;;;5031363;28;20414;-74
2021/09/08 03:18:22;;;;;;;15.47;12.37;;;;;;;;;;5036656;28;20431;-74
2021/09/08 03:20:48;;;;;;;13.80;12.40;;;;;;;;;;5023119;28;20417;-74
2021/09/08 03:23:14;;;;;;;15.20;11.63;;;;;;;;;;5024473;28;20407;-76
2021/09/08 03:25:40;;;;;;;12.57;11.17;;;;;;;;;;5022860;28;20758;-75
2021/09/08 03:28:06;;;;;;;15.20;13.50;;;;;;;;;;5016937;28;20950;-75
2021/09/08 03:30:32;;;;;;;13.27;11.87;;;;;;;;;;5034017;28;20554;-74
2021/09/08 03:32:58;;;;;;;15.23;12.10;;;;;;;;;;5029772;28;20551;-74
2021/09/08 03:35:24;;;;;;;14.37;12.57;;;;;;;;;;5016820;28;20502;-74
2021/09/08 03:37:50;;;;;;;15.53;11.50;;;;;;;;;;5016471;28;20935;-74
2021/09/08 03:40:16;;;;;;;13.40;11.23;;;;;;;;;;5036386;28;20419;-74
2021/09/08 03:42:43;;;;;;;11.90;10.70;;;;;;;;;;5017056;28;20443;-75
2021/09/08 03:45:09;;;;;;;15.10;11.90;;;;;;;;;;5016445;28;20948;-73
2021/09/08 03:47:35;;;;;;;13.77;11.83;;;;;;;;;;5016557;28;20401;-72
2021/09/08 03:50:02;;;;;;;13.20;11.80;;;;;;;;;;5016090;28;20521;-73
2021/09/08 03:52:28;;;;;;;12.80;11.50;;;;;;;;;;5016746;28;20415;-75
2021/09/08 03:54:53;;;;;;;12.20;10.30;;;;;;;;;;5029664;28;20473;-74
2021/09/08 03:57:19;;;;;;;12.63;11.33;;;;;;;;;;5033618;28;20450;-75
2021/09/08 03:59:46;;;;;;;12.57;11.17;;;;;;;;;;5034474;28;20450;-73
2021/09/08 04:02:12;;;;;;;13.30;11.60;;;;;;;;;;5015827;28;20497;-74
2021/09/08 04:04:38;;;;;;;12.50;11.03;;;;;;;;;;5016084;28;20464;-73
2021/09/08 04:07:04;;;;;;;11.80;10.60;;;;;;;;;;5022953;28;20431;-74
2021/09/08 04:09:30;;;;;;;12.20;10.90;;;;;;;;;;5022226;28;20510;-75
2021/09/08 04:11:57;;;;;;;11.33;10.10;;;;;;;;;;5028444;28;20486;-73
2021/09/08 04:14:23;;;;;;;12.30;11.10;;;;;;;;;;5018411;28;20808;-75
2021/09/08 04:16:49;;;;;;;11.70;10.50;;;;;;;;;;5039066;28;20509;-75
2021/09/08 04:19:15;;;;;;;13.60;10.90;;;;;;;;;;5015630;28;20458;-74
2021/09/08 04:21:41;;;;;;;14.70;12.27;;;;;;;;;;5016081;28;20506;-74
2021/09/08 04:24:07;;;;;;;12.20;10.90;;;;;;;;;;5017076;28;20524;-73
2021/09/08 04:26:33;;;;;;;12.10;10.90;;;;;;;;;;5027099;28;20419;-74
2021/09/08 04:28:59;;;;;;;13.47;12.07;;;;;;;;;;5019789;28;20911;-73
2021/09/08 04:31:25;;;;;;;13.40;11.50;;;;;;;;;;5026968;28;20463;-75
2021/09/08 04:33:51;;;;;;;15.50;12.97;;;;;;;;;;5017390;28;20416;-74
2021/09/08 04:36:17;;;;;;;13.83;12.53;;;;;;;;;;5026610;28;20802;-73
2021/09/08 04:38:45;;;;;;;13.90;12.53;;;;;;;;;;5017266;28;20523;-74
2021/09/08 04:41:11;;;;;;;13.10;11.70;;;;;;;;;;5026474;28;20411;-73
2021/09/08 04:43:38;;;;;;;13.13;11.40;;;;;;;;;;5015439;28;20424;-73
2021/09/08 04:46:04;;;;;;;13.87;12.47;;;;;;;;;;5024380;28;20877;-73
2021/09/08 04:48:30;;;;;;;15.00;13.13;;;;;;;;;;5034654;28;20584;-72
2021/09/08 04:50:56;;;;;;;15.93;12.40;;;;;;;;;;5025676;28;20549;-74
2021/09/08 04:53:22;;;;;;;14.20;12.70;;;;;;;;;;5028675;28;20410;-73
2021/09/08 04:55:48;;;;;;;14.07;12.60;;;;;;;;;;5021694;28;20411;-73
2021/09/08 04:58:14;;;;;;;14.40;12.73;;;;;;;;;;5021221;28;20445;-74
2021/09/08 05:00:40;;;;;;;15.17;11.70;;;;;;;;;;5025016;28;20414;-75
2021/09/08 05:03:06;;;;;;;16.07;13.50;;;;;;;;;;5015294;28;20424;-74
2021/09/08 05:05:32;;;;;;;14.30;12.00;;;;;;;;;;5014842;28;20475;-74
2021/09/08 05:07:58;;;;;;;15.00;12.00;;;;;;;;;;5014762;28;20821;-74
2021/09/08 05:10:24;;;;;;;14.23;12.77;;;;;;;;;;5014895;28;20518;-75
2021/09/08 05:12:50;;;;;;;13.77;12.47;;;;;;;;;;5018760;28;20422;-74
2021/09/08 05:15:17;;;;;;;14.03;11.63;;;;;;;;;;5042087;28;20408;-73
2021/09/08 05:17:43;;;;;;;15.03;13.50;;;;;;;;;;5023246;28;20780;-73
2021/09/08 05:20:09;;;;;;;15.10;12.03;;;;;;;;;;5014731;28;20415;-72
2021/09/08 05:22:35;;;;;;;15.60;11.57;;;;;;;;;;5029997;28;20817;-75
2021/09/08 05:25:01;;;;;;;14.63;13.00;;;;;;;;;;5025675;28;20771;-75
2021/09/08 05:27:27;;;;;;;14.53;13.00;;;;;;;;;;5016499;28;20412;-73
2021/09/08 05:29:53;;;;;;;15.20;13.50;;;;;;;;;;5024686;28;20488;-73
2021/09/08 05:32:19;;;;;;;13.67;12.27;;;;;;;;;;5014650;28;20792;-74
2021/09/08 05:34:45;;;;;;;13.60;12.20;;;;;;;;;;5014609;28;20417;-73
2021/09/08 05:37:11;;;;;;;14.87;12.67;;;;;;;;;;5027499;28;20461;-74
2021/09/08 05:39:37;;;;;;;13.83;12.37;;;;;;;;;;5017573;28;20462;-73
2021/09/08 05:42:03;;;;;;;14.97;11.20;;;;;;;;;;5024978;28;20422;-73
2021/09/08 05:44:29;;;;;;;12.87;11.53;;;;;;;;;;5025328;28;20417;-73
2021/09/08 05:46:55;;;;;;;18.07;13.60;;;;;;;;;;5015941;28;20428;-74
2021/09/08 05:49:22;;;;;;;15.70;12.07;;;;;;;;;;5025136;28;20431;-74
2021/09/08 05:51:48;;;;;;;15.80;13.23;;;;;;;;;;5014236;28;20466;-73
2021/09/08 05:54:14;;;;;;;15.33;12.13;;;;;;;;;;5014846;28;20511;-74
2021/09/08 05:56:40;;;;;;;15.27;13.60;;;;;;;;;;5013921;28;20409;-74
2021/09/08 05:59:06;;;;;;;17.97;12.57;;;;;;;;;;5020121;28;20428;-74
2021/09/08 06:01:32;;;;;;;18.10;13.77;;;;;;;;;;5032584;28;20475;-75
2021/09/08 06:03:58;;;;;;;20.47;13.90;;;;;;;;;;5014450;28;20415;-74
2021/09/08 06:06:24;;;;;;;14.80;12.77;;;;;;;;;;5013761;28;20436;-75
2021/09/08 06:08:50;;;;;;;17.33;14.70;;;;;;;;;;5013370;28;20522;-74
2021/09/08 06:11:16;;;;;;;22.47;14.50;;;;;;;;;;5017171;28;20464;-72
2021/09/08 06:13:42;;;;;;;16.87;13.77;;;;;;;;;;5014016;28;20471;-74
2021/09/08 06:16:08;;;;;;;16.20;13.00;;;;;;;;;;5016151;28;20434;-75
2021/09/08 06:18:34;;;;;;;17.30;13.50;;;;;;;;;;5013256;28;20842;-75
2021/09/08 06:21:00;;;;;;;18.03;13.00;;;;;;;;;;5013373;28;20515;-74
2021/09/08 06:23:26;;;;;;;17.90;14.63;;;;;;;;;;5026757;28;20786;-75
2021/09/08 06:25:52;;;;;;;16.50;14.70;;;;;;;;;;5013469;28;20514;-73
2021/09/08 06:28:18;;;;;;;21.07;17.33;;;;;;;;;;5026199;28;20431;-74
2021/09/08 06:30:45;;;;;;;18.70;16.70;;;;;;;;;;5018684;28;20570;-74
2021/09/08 06:33:11;;;;;;;20.87;17.23;;;;;;;;;;5013378;28;20413;-75
2021/09/08 06:35:37;;;;;;;22.60;17.60;;;;;;;;;;5013348;28;20412;-75
2021/09/08 06:38:03;;;;;;;20.50;16.60;;;;;;;;;;5012998;28;20424;-76
2021/09/08 06:40:29;;;;;;;17.57;15.80;;;;;;;;;;5012709;28;20775;-74
2021/09/08 06:42:55;;;;;;;20.23;15.77;;;;;;;;;;5013080;28;20421;-74
2021/09/08 06:45:21;;;;;;;16.30;14.40;;;;;;;;;;5017033;28;20440;-74
2021/09/08 06:47:47;;;;;;;16.07;14.40;;;;;;;;;;5014473;28;20509;-74
2021/09/08 06:50:13;;;;;;;17.67;15.80;;;;;;;;;;5011943;28;20828;-73
2021/09/08 06:52:39;;;;;;;17.30;15.50;;;;;;;;;;5021837;28;20428;-74
2021/09/08 06:55:05;;;;;;;18.63;14.43;;;;;;;;;;5021005;28;20452;-73
2021/09/08 06:57:31;;;;;;;18.80;15.90;;;;;;;;;;5021066;28;20445;-74
2021/09/08 06:59:57;;;;;;;17.33;15.00;;;;;;;;;;5018074;28;20439;-74
2021/09/08 07:02:23;;;;;;;15.43;13.93;;;;;;;;;;5022739;28;20419;-74
2021/09/08 07:04:49;;;;;;;17.50;15.30;;;;;;;;;;5011853;28;20410;-74
2021/09/08 07:07:18;;;;;;;17.60;14.40;;;;;;;;;;5031359;28;20990;-74
2021/09/08 07:09:44;;;;;;;18.43;14.93;;;;;;;;;;5009099;28;20469;-73
2021/09/08 07:12:10;;;;;;;16.67;13.77;;;;;;;;;;5009266;28;20524;-76
2021/09/08 07:14:36;;;;;;;17.07;15.10;;;;;;;;;;5009313;28;20429;-73
2021/09/08 07:17:02;;;;;;;17.80;14.90;;;;;;;;;;5008966;28;20415;-73
2021/09/08 07:19:28;;;;;;;20.70;15.17;;;;;;;;;;5009269;28;20445;-74
2021/09/08 07:21:54;;;;;;;17.67;15.23;;;;;;;;;;5009092;28;20504;-74
2021/09/08 07:24:20;;;;;;;16.10;14.40;;;;;;;;;;5009294;28;20452;-74
2021/09/08 07:26:46;;;;;;;21.70;14.80;;;;;;;;;;5007329;28;20492;-74
2021/09/08 07:29:12;;;;;;;15.90;14.23;;;;;;;;;;5015246;28;20472;-74
2021/09/08 07:31:39;;;;;;;16.00;13.47;;;;;;;;;;5012767;28;20556;-75
2021/09/08 07:34:05;;;;;;;16.07;14.37;;;;;;;;;;5009229;28;20420;-74
2021/09/08 07:36:31;;;;;;;16.83;15.03;;;;;;;;;;5009228;28;20459;-74
2021/09/08 07:38:57;;;;;;;15.13;13.00;;;;;;;;;;5009206;28;20442;-74
2021/09/08 07:41:23;;;;;;;14.33;12.60;;;;;;;;;;5010220;28;20484;-75
2021/09/08 07:43:49;;;;;;;21.50;14.03;;;;;;;;;;5020019;28;20476;-74
2021/09/08 07:46:15;;;;;;;15.70;14.10;;;;;;;;;;5025503;28;20414;-75
2021/09/08 07:48:41;;;;;;;14.73;13.33;;;;;;;;;;5022080;28;20479;-74
2021/09/08 07:51:08;;;;;;;18.83;14.00;;;;;;;;;;5009707;28;21000;-73
2021/09/08 07:53:35;;;;;;;15.40;13.97;;;;;;;;;;5012741;28;20474;-73
2021/09/08 07:56:01;;;;;;;13.23;11.83;;;;;;;;;;5012701;28;20421;-74
2021/09/08 07:58:27;;;;;;;14.87;12.77;;;;;;;;;;5012448;28;20519;-74
2021/09/08 08:00:53;;;;;;;13.30;11.90;;;;;;;;;;5020600;28;20412;-73
2021/09/08 08:03:20;;;;;;;16.70;12.67;;;;;;;;;;5018099;28;20418;-73
2021/09/08 08:05:46;;;;;;;13.53;12.23;;;;;;;;;;5012572;28;20429;-74
2021/09/08 08:08:13;;;;;;;13.97;12.47;;;;;;;;;;5025717;28;20432;-74
2021/09/08 08:10:39;;;;;;;13.93;12.27;;;;;;;;;;5012655;28;20465;-74
2021/09/08 08:13:05;;;;;;;13.60;12.20;;;;;;;;;;5012188;28;20487;-73
2021/09/08 08:15:31;;;;;;;14.90;13.40;;;;;;;;;;5012343;28;20428;-74
2021/09/08 08:17:57;;;;;;;18.27;13.30;;;;;;;;;;5011856;28;20913;-73
2021/09/08 08:20:23;;;;;;;14.80;13.20;;;;;;;;;;5012539;28;20419;-73
2021/09/08 08:22:50;;;;;;;17.60;13.83;;;;;;;;;;5013654;28;20421;-72
2021/09/08 08:25:20;;;;;;;15.10;12.20;;;;;;;;;;5012230;28;20455;-73
2021/09/08 08:27:47;;;;;;;13.57;12.37;;;;;;;;;;5011693;28;20432;-72
2021/09/08 08:30:14;;;;;;;15.97;12.53;;;;;;;;;;5019328;28;21003;-73
2021/09/08 08:32:40;;;;;;;13.87;12.37;;;;;;;;;;5018756;28;20492;-74
2021/09/08 08:35:06;;;;;;;13.70;12.40;;;;;;;;;;5023109;28;20441;-74
2021/09/08 08:37:32;;;;;;;13.40;12.03;;;;;;;;;;5011549;28;20410;-73
2021/09/08 08:39:58;;;;;;;17.97;11.47;;;;;;;;;;5011949;28;20450;-73
2021/09/08 08:42:27;;;;;;;12.13;10.80;;;;;;;;;;5020294;28;20520;-75
2021/09/08 08:44:53;;;;;;;12.70;11.50;;;;;;;;;;5026843;28;20425;-75
2021/09/08 08:47:20;;;;;;;13.17;11.40;;;;;;;;;;5012046;28;20799;-74
2021/09/08 08:49:46;;;;;;;13.30;11.90;;;;;;;;;;5011549;28;20434;-73
2021/09/08 08:52:13;;;;;;;12.73;11.43;;;;;;;;;;5023847;28;20464;-74
2021/09/08 08:54:39;;;;;;;13.20;11.87;;;;;;;;;;5012666;28;20513;-73
2021/09/08 08:57:08;;;;;;;17.10;13.17;;;;;;;;;;5011472;28;20492;-74
2021/09/08 08:59:38;;;;;;;12.60;11.40;;;;;;;;;;5011333;28;20892;-74
2021/09/08 09:02:26;;;;;;;12.07;10.97;;;;;;;;;;5010081;28;20480;-72
2021/09/08 09:04:53;;;;;;;12.60;11.40;;;;;;;;;;5020238;28;20424;-73
2021/09/08 09:07:22;;;;;;;12.10;11.00;;;;;;;;;;5013509;28;20449;-73
2021/09/08 09:09:53;;;;;;;12.17;10.90;;;;;;;;;;5011156;28;20978;-74
2021/09/08 09:12:19;;;;;;;11.10;10.10;;;;;;;;;;5011441;28;20413;-73
2021/09/08 09:14:48;;;;;;;13.30;11.80;;;;;;;;;;5011152;28;20410;-73
2021/09/08 09:17:14;;;;;;;11.97;10.70;;;;;;;;;;5014702;28;20397;-74
2021/09/08 09:19:50;;;;;;;11.90;10.80;;;;;;;;;;5020550;28;20433;-72
2021/09/08 09:22:17;;;;;;;10.80;9.70;;;;;;;;;;5011280;28;20408;-72
2021/09/08 09:24:43;;;;;;;11.97;9.67;;;;;;;;;;5011948;28;20480;-74
2021/09/08 09:27:12;;;;;;;10.40;9.50;;;;;;;;;;5017827;28;20969;-74
2021/09/08 09:29:42;;;;;;;9.87;8.93;;;;;;;;;;5020020;28;20461;-74
2021/09/08 09:32:11;;;;;;;9.63;8.73;;;;;;;;;;5012100;28;20468;-73
2021/09/08 09:34:38;;;;;;;9.97;8.97;;;;;;;;;;5014522;28;20848;-74
2021/09/08 09:37:04;;;;;;;10.67;9.57;;;;;;;;;;5022805;28;20408;-74
2021/09/08 09:39:32;;;;;;;10.13;9.23;;;;;;;;;;5023510;28;20440;-74
2021/09/08 09:41:59;;;;;;;9.37;8.57;;;;;;;;;;5036139;28;20411;-73
2021/09/08 09:44:25;;;;;;;9.70;8.80;;;;;;;;;;5022183;28;20414;-75
2021/09/08 09:46:55;;;;;;;9.87;8.87;;;;;;;;;;5033430;28;20421;-73
2021/09/08 09:49:21;;;;;;;10.10;8.83;;;;;;;;;;5015295;28;20448;-74
2021/09/08 09:51:47;;;;;;;10.60;9.80;;;;;;;;;;5011732;28;20561;-75
2021/09/08 09:54:15;;;;;;;10.77;9.97;;;;;;;;;;5010999;28;20863;-72
2021/09/08 09:56:41;;;;;;;9.13;8.33;;;;;;;;;;5010583;28;20536;-73
2021/09/08 09:59:08;;;;;;;8.80;8.00;;;;;;;;;;5018259;28;20897;-72
2021/09/08 10:01:34;;;;;;;9.27;8.43;;;;;;;;;;5020007;28;20445;-73
2021/09/08 10:04:01;;;;;;;19.00;8.90;;;;;;;;;;5025735;28;20436;-73
2021/09/08 10:06:27;;;;;;;9.23;8.53;;;;;;;;;;5021619;28;20447;-73
2021/09/08 10:08:58;;;;;;;9.17;8.30;;;;;;;;;;5012378;28;20445;-74
2021/09/08 10:11:25;;;;;;;9.40;8.60;;;;;;;;;;5019146;28;20480;-72
2021/09/08 10:13:57;;;;;;;9.63;8.80;;;;;;;;;;5012181;28;20413;-72
2021/09/08 10:16:24;;;;;;;9.27;8.47;;;;;;;;;;5010284;28;20409;-73
2021/09/08 10:18:50;;;;;;;9.50;8.70;;;;;;;;;;5009677;28;20443;-73
2021/09/08 10:21:21;;;;;;;11.53;10.63;;;;;;;;;;5010524;28;20430;-73
2021/09/08 10:23:47;;;;;;;10.30;9.30;;;;;;;;;;5010148;28;20429;-72
2021/09/08 10:26:14;;;;;;;10.10;9.20;;;;;;;;;;5010479;28;20437;-72
2021/09/08 10:28:41;;;;;;;9.87;8.87;;;;;;;;;;5011622;28;20836;-74
2021/09/08 10:31:11;;;;;;;9.10;8.30;;;;;;;;;;5018321;28;20472;-73
2021/09/08 10:33:38;;;;;;;9.43;8.63;;;;;;;;;;5009940;28;20457;-73
2021/09/08 10:36:05;;;;;;;9.13;8.43;;;;;;;;;;5010699;28;20460;-73
2021/09/08 10:38:32;;;;;;;9.80;9.00;;;;;;;;;;5021462;28;20448;-73
2021/09/08 10:40:58;;;;;;;8.87;8.17;;;;;;;;;;5026334;28;20413;-73
2021/09/08 10:43:34;;;;;;;10.30;9.40;;;;;;;;;;5022734;28;20949;-74
2021/09/08 10:46:01;;;;;;;9.00;7.53;;;;;;;;;;5016690;28;20424;-74
2021/09/08 10:48:37;;;;;;;9.53;8.70;;;;;;;;;;5028964;28;20947;-74
2021/09/08 10:51:07;;;;;;;8.67;7.90;;;;;;;;;;5021177;28;20819;-74
2021/09/08 10:53:34;;;;;;;8.80;7.97;;;;;;;;;;5018947;28;20407;-72
2021/09/08 10:56:00;;;;;;;12.00;10.93;;;;;;;;;;5009480;28;21040;-72
2021/09/08 10:58:50;;;;;;;8.90;8.10;;;;;;;;;;5009048;28;20442;-73
2021/09/08 11:01:18;;;;;;;8.43;7.83;;;;;;;;;;5008705;28;20939;-72
2021/09/08 11:03:45;;;;;;;9.50;8.70;;;;;;;;;;5009427;28;20470;-72
2021/09/08 11:06:11;;;;;;;9.90;9.10;;;;;;;;;;5009258;28;20480;-73
2021/09/08 11:08:37;;;;;;;9.50;8.37;;;;;;;;;;5008879;28;20949;-72
2021/09/08 11:11:06;;;;;;;8.37;7.67;;;;;;;;;;5007838;28;20469;-72
2021/09/08 11:13:33;;;;;;;7.37;6.80;;;;;;;;;;5009251;28;20410;-71
2021/09/08 11:15:59;;;;;;;9.30;8.20;;;;;;;;;;5022651;28;20451;-72
2021/09/08 11:18:35;;;;;;;8.93;8.13;;;;;;;;;;5018582;28;20473;-73
2021/09/08 11:21:03;;;;;;;9.13;8.10;;;;;;;;;;5009261;28;20483;-72
2021/09/08 11:23:29;;;;;;;8.80;8.10;;;;;;;;;;5009281;28;20424;-71
2021/09/08 11:25:55;;;;;;;8.77;7.97;;;;;;;;;;5009151;28;20978;-73
2021/09/08 11:28:21;;;;;;;7.77;7.17;;;;;;;;;;5012890;28;20449;-74
2021/09/08 11:30:47;;;;;;;9.10;8.20;;;;;;;;;;5015862;28;20969;-73
2021/09/08 11:33:14;;;;;;;8.70;7.23;;;;;;;;;;5012812;28;20428;-71
2021/09/08 11:35:45;;;;;;;8.23;7.63;;;;;;;;;;5016542;28;20412;-72
2021/09/08 11:38:13;;;;;;;8.47;7.70;;;;;;;;;;5032197;28;20614;-73
2021/09/08 11:40:40;;;;;;;8.07;7.47;;;;;;;;;;5030846;28;20473;-72
2021/09/08 11:43:06;;;;;;;7.17;6.47;;;;;;;;;;5020379;28;20425;-71
2021/09/08 11:45:33;;;;;;;6.93;6.43;;;;;;;;;;5031047;28;20452;-71
2021/09/08 11:47:59;;;;;;;8.37;7.67;;;;;;;;;;5031957;28;20474;-74
2021/09/08 11:50:25;;;;;;;7.90;7.40;;;;;;;;;;5032242;28;20464;-71
2021/09/08 11:52:55;;;;;;;6.87;6.40;;;;;;;;;;5032362;28;20463;-70
2021/09/08 11:55:33;;;;;;;7.57;7.03;;;;;;;;;;5029182;28;20429;-73
2021/09/08 11:58:18;;;;;;;7.53;6.80;;;;;;;;;;5012003;28;20416;-73
2021/09/08 12:00:57;;;;;;;7.23;6.77;;;;;;;;;;5012237;28;20870;-73
2021/09/08 12:03:23;;;;;;;7.60;6.90;;;;;;;;;;5012395;28;20429;-74
2021/09/08 12:05:50;;;;;;;7.27;6.67;;;;;;;;;;5011959;28;20484;-72
2021/09/08 12:08:22;;;;;;;6.53;6.03;;;;;;;;;;5011836;28;20443;-72
2021/09/08 12:10:49;;;;;;;7.50;6.80;;;;;;;;;;5010639;28;20503;-71
2021/09/08 12:13:33;;;;;;;7.97;7.20;;;;;;;;;;5012030;28;20422;-71
2021/09/08 12:15:59;;;;;;;7.53;6.93;;;;;;;;;;5026809;28;20423;-72
2021/09/08 12:18:25;;;;;;;6.80;6.30;;;;;;;;;;5024530;28;20480;-71
2021/09/08 12:20:51;;;;;;;7.10;6.60;;;;;;;;;;5012045;28;20822;-73
2021/09/08 12:23:29;;;;;;;6.30;5.80;;;;;;;;;;5012161;28;20504;-72
2021/09/08 12:26:11;;;;;;;18.73;17.33;;;;;;;;;;5011687;28;20413;-72
2021/09/08 12:28:38;;;;;;;5.70;5.30;;;;;;;;;;5012951;28;20495;-70
2021/09/08 12:31:13;;;;;;;5.80;5.40;;;;;;;;;;5012566;28;20489;-71
2021/09/08 12:33:55;;;;;;;5.93;5.43;;;;;;;;;;5011880;28;20423;-70
2021/09/08 12:36:22;;;;;;;5.30;4.90;;;;;;;;;;5021423;28;20446;-73
2021/09/08 12:38:51;;;;;;;6.93;5.80;;;;;;;;;;5021777;28;20445;-74
2021/09/08 12:41:17;;;;;;;5.80;5.40;;;;;;;;;;5018516;28;20825;-72
2021/09/08 12:43:45;;;;;;;6.10;5.70;;;;;;;;;;5020908;28;20428;-73
2021/09/08 12:46:11;;;;;;;6.77;6.33;;;;;;;;;;5031366;28;20832;-74
2021/09/08 12:48:37;;;;;;;7.03;6.10;;;;;;;;;;5028030;28;20443;-74
2021/09/08 12:51:03;;;;;;;6.30;5.80;;;;;;;;;;5011426;28;20588;-72
2021/09/08 12:53:29;;;;;;;6.50;6.00;;;;;;;;;;5011617;28;20425;-73
2021/09/08 12:55:55;;;;;;;5.80;5.30;;;;;;;;;;5011369;28;20449;-72
2021/09/08 12:58:22;;;;;;;6.23;5.70;;;;;;;;;;5011052;28;20864;-72
2021/09/08 13:00:48;;;;;;;6.47;5.77;;;;;;;;;;5011294;28;20441;-74
2021/09/08 13:03:14;;;;;;;6.50;5.90;;;;;;;;;;5011289;28;20836;-74
2021/09/08 13:05:40;;;;;;;6.23;5.80;;;;;;;;;;5012341;28;20507;-73
2021/09/08 13:08:06;;;;;;;6.63;6.13;;;;;;;;;;5013460;28;20481;-75
2021/09/08 13:10:32;;;;;;;5.60;5.20;;;;;;;;;;5011376;28;20846;-74
2021/09/08 13:12:58;;;;;;;5.40;5.00;;;;;;;;;;5011347;28;20422;-73
2021/09/08 13:15:24;;;;;;;6.00;5.40;;;;;;;;;;5021505;28;20428;-76
2021/09/08 13:17:51;;;;;;;6.80;5.20;;;;;;;;;;5016065;28;20421;-74
2021/09/08 13:20:17;;;;;;;6.17;5.60;;;;;;;;;;5011310;28;20422;-71
2021/09/08 13:22:43;;;;;;;5.80;5.30;;;;;;;;;;5011317;28;20440;-75
2021/09/08 13:25:10;;;;;;;6.07;5.57;;;;;;;;;;5011073;28;20771;-72
2021/09/08 13:27:37;;;;;;;9.50;8.70;;;;;;;;;;5010437;28;20791;-71
2021/09/08 13:30:04;;;;;;;6.37;5.77;;;;;;;;;;5013114;28;20537;-73
2021/09/08 13:32:30;;;;;;;5.50;5.10;;;;;;;;;;5010917;28;20418;-71
2021/09/08 13:34:58;;;;;;;6.13;5.63;;;;;;;;;;5009443;28;20453;-74
2021/09/08 13:37:24;;;;;;;6.70;6.10;;;;;;;;;;5028056;28;20412;-70
2021/09/08 13:39:50;;;;;;;9.60;6.07;;;;;;;;;;5015370;28;20445;-74
2021/09/08 13:42:16;;;;;;;6.03;5.53;;;;;;;;;;5023766;28;20937;-71
2021/09/08 13:44:42;;;;;;;6.80;6.13;;;;;;;;;;5012064;28;20464;-74
2021/09/08 13:47:09;;;;;;;5.87;5.23;;;;;;;;;;5009834;28;20968;-72
2021/09/08 13:49:35;;;;;;;6.07;5.57;;;;;;;;;;5009941;28;20479;-73
2021/09/08 13:52:02;;;;;;;6.87;5.60;;;;;;;;;;5009981;28;20493;-75
2021/09/08 13:54:28;;;;;;;6.20;5.70;;;;;;;;;;5010341;28;20417;-73
2021/09/08 13:56:54;;;;;;;6.03;5.43;;;;;;;;;;5009924;28;20424;-73
2021/09/08 13:59:20;;;;;;;8.27;5.30;;;;;;;;;;5010153;28;20433;-70
2021/09/08 14:01:46;;;;;;;5.60;4.90;;;;;;;;;;5009994;28;20808;-72
2021/09/08 14:04:12;;;;;;;5.10;4.70;;;;;;;;;;5010471;28;20507;-73
2021/09/08 14:06:39;;;;;;;6.80;6.20;;;;;;;;;;5008310;28;20508;-73
2021/09/08 14:09:05;;;;;;;8.33;7.53;;;;;;;;;;5009984;28;20453;-72
2021/09/08 14:11:31;;;;;;;6.23;5.63;;;;;;;;;;5010501;28;20495;-76
2021/09/08 14:13:57;;;;;;;5.40;5.00;;;;;;;;;;5009704;28;20449;-74
2021/09/08 14:16:23;;;;;;;5.80;5.13;;;;;;;;;;5023397;28;20515;-75
2021/09/08 14:18:49;;;;;;;5.83;5.30;;;;;;;;;;5009740;28;20461;-72
2021/09/08 14:21:15;;;;;;;5.70;5.13;;;;;;;;;;5010127;28;20427;-74
2021/09/08 14:23:41;;;;;;;6.90;6.00;;;;;;;;;;5010256;28;20501;-72